sensor_id;sensor_type;location;lat;lon;timestamp;pressure;altitude;pressure_sealevel;temperature;humidity
39197;BME280;42889;51.112;13.772;2022-10-17T00:01:28;99770.03;;;12.11;100.00
39197;BME280;42889;51.112;13.772;2022-10-17T00:03:55;99769.34;;;12.27;100.00
39197;BME280;42889;51.112;13.772;2022-10-17T00:06:21;99769.72;;;12.15;100.00
39197;BME280;42889;51.112;13.772;2022-10-17T00:08:50;99758.44;;;12.01;100.00
39197;BME280;42889;51.112;13.772;2022-10-17T00:11:20;99764.16;;;11.98;100.00
39197;BME280;42889;51.112;13.772;2022-10-17T00:13:48;99758.22;;;11.95;100.00
39197;BME280;42889;51.112;13.772;2022-10-17T00:16:24;99765.75;;;11.91;100.00
39197;BME280;42889;51.112;13.772;2022-10-17T00:18:51;99764.47;;;11.95;100.00
39197;BME280;42889;51.112;13.772;2022-10-17T00:21:18;99767.09;;;11.77;100.00
39197;BME280;42889;51.112;13.772;2022-10-17T00:23:46;99765.25;;;11.78;100.00
39197;BME280;42889;51.112;13.772;2022-10-17T00:26:14;99762.72;;;11.76;100.00
39197;BME280;42889;51.112;13.772;2022-10-17T00:28:41;99759.00;;;11.77;100.00
39197;BME280;42889;51.112;13.772;2022-10-17T00:31:09;99762.31;;;11.71;100.00
39197;BME280;42889;51.112;13.772;2022-10-17T00:33:35;99766.31;;;11.67;100.00
39197;BME280;42889;51.112;13.772;2022-10-17T00:36:15;99773.63;;;11.75;100.00
39197;BME280;42889;51.112;13.772;2022-10-17T00:38:44;99771.94;;;11.74;100.00
39197;BME280;42889;51.112;13.772;2022-10-17T00:41:14;99768.22;;;11.84;100.00
39197;BME280;42889;51.112;13.772;2022-10-17T00:46:30;99772.09;;;11.82;100.00
39197;BME280;42889;51.112;13.772;2022-10-17T00:49:00;99769.22;;;11.83;100.00
39197;BME280;42889;51.112;13.772;2022-10-17T00:54:08;99773.25;;;11.97;100.00
39197;BME280;42889;51.112;13.772;2022-10-17T00:56:36;99781.13;;;11.81;100.00
39197;BME280;42889;51.112;13.772;2022-10-17T00:59:03;99771.47;;;11.60;100.00
39197;BME280;42889;51.112;13.772;2022-10-17T01:01:37;99773.91;;;11.54;100.00
39197;BME280;42889;51.112;13.772;2022-10-17T01:04:05;99763.06;;;11.64;100.00
39197;BME280;42889;51.112;13.772;2022-10-17T01:06:32;99770.81;;;11.49;100.00
39197;BME280;42889;51.112;13.772;2022-10-17T01:08:58;99773.00;;;11.63;100.00
39197;BME280;42889;51.112;13.772;2022-10-17T01:11:55;99769.81;;;11.50;100.00
39197;BME280;42889;51.112;13.772;2022-10-17T01:17:27;99766.31;;;11.40;100.00
39197;BME280;42889;51.112;13.772;2022-10-17T01:22:57;99769.88;;;11.30;100.00
39197;BME280;42889;51.112;13.772;2022-10-17T01:33:55;99763.44;;;11.41;100.00
39197;BME280;42889;51.112;13.772;2022-10-17T01:36:48;99764.16;;;11.43;100.00
39197;BME280;42889;51.112;13.772;2022-10-17T01:39:26;99762.16;;;11.45;100.00
39197;BME280;42889;51.112;13.772;2022-10-17T01:42:11;99766.16;;;11.41;100.00
39197;BME280;42889;51.112;13.772;2022-10-17T01:44:47;99768.03;;;11.31;100.00
39197;BME280;42889;51.112;13.772;2022-10-17T01:47:22;99772.78;;;11.47;100.00
39197;BME280;42889;51.112;13.772;2022-10-17T01:49:53;99767.91;;;11.60;100.00
39197;BME280;42889;51.112;13.772;2022-10-17T01:52:40;99768.66;;;11.52;100.00
39197;BME280;42889;51.112;13.772;2022-10-17T01:55:12;99765.50;;;11.57;100.00
39197;BME280;42889;51.112;13.772;2022-10-17T01:57:56;99759.44;;;11.55;100.00
39197;BME280;42889;51.112;13.772;2022-10-17T02:00:26;99757.75;;;11.54;100.00
39197;BME280;42889;51.112;13.772;2022-10-17T02:02:58;99746.06;;;11.53;100.00
39197;BME280;42889;51.112;13.772;2022-10-17T02:05:30;99745.88;;;11.65;100.00
39197;BME280;42889;51.112;13.772;2022-10-17T02:07:57;99758.09;;;11.59;100.00
39197;BME280;42889;51.112;13.772;2022-10-17T02:10:36;99743.00;;;11.48;100.00
39197;BME280;42889;51.112;13.772;2022-10-17T02:13:36;99755.78;;;11.46;100.00
39197;BME280;42889;51.112;13.772;2022-10-17T02:19:21;99749.38;;;11.47;100.00
39197;BME280;42889;51.112;13.772;2022-10-17T02:21:56;99738.06;;;11.44;100.00
39197;BME280;42889;51.112;13.772;2022-10-17T02:24:35;99746.03;;;11.35;100.00
39197;BME280;42889;51.112;13.772;2022-10-17T02:27:18;99747.69;;;11.46;100.00
39197;BME280;42889;51.112;13.772;2022-10-17T02:29:56;99738.88;;;11.54;100.00
39197;BME280;42889;51.112;13.772;2022-10-17T02:34:59;99743.25;;;11.55;100.00
39197;BME280;42889;51.112;13.772;2022-10-17T02:37:28;99738.16;;;11.52;100.00
39197;BME280;42889;51.112;13.772;2022-10-17T02:39:58;99740.56;;;11.55;100.00
39197;BME280;42889;51.112;13.772;2022-10-17T02:42:26;99745.59;;;11.68;100.00
39197;BME280;42889;51.112;13.772;2022-10-17T02:44:58;99744.97;;;11.74;100.00
39197;BME280;42889;51.112;13.772;2022-10-17T02:47:35;99750.53;;;11.72;100.00
39197;BME280;42889;51.112;13.772;2022-10-17T02:50:06;99749.53;;;11.73;100.00
39197;BME280;42889;51.112;13.772;2022-10-17T02:52:47;99748.75;;;11.81;100.00
39197;BME280;42889;51.112;13.772;2022-10-17T02:55:34;99749.06;;;11.78;100.00
39197;BME280;42889;51.112;13.772;2022-10-17T02:58:20;99748.22;;;11.77;100.00
39197;BME280;42889;51.112;13.772;2022-10-17T03:00:47;99750.50;;;11.82;100.00
39197;BME280;42889;51.112;13.772;2022-10-17T03:03:26;99745.50;;;11.87;100.00
39197;BME280;42889;51.112;13.772;2022-10-17T03:05:58;99745.88;;;11.92;100.00
39197;BME280;42889;51.112;13.772;2022-10-17T03:08:24;99738.50;;;12.12;100.00
39197;BME280;42889;51.112;13.772;2022-10-17T03:10:51;99742.53;;;12.26;100.00
39197;BME280;42889;51.112;13.772;2022-10-17T03:13:19;99736.00;;;12.54;100.00
39197;BME280;42889;51.112;13.772;2022-10-17T03:15:46;99738.00;;;12.52;100.00
39197;BME280;42889;51.112;13.772;2022-10-17T03:18:13;99736.59;;;12.66;100.00
39197;BME280;42889;51.112;13.772;2022-10-17T03:20:39;99737.00;;;12.53;100.00
39197;BME280;42889;51.112;13.772;2022-10-17T03:23:07;99743.47;;;12.60;100.00
39197;BME280;42889;51.112;13.772;2022-10-17T03:25:35;99736.38;;;12.59;100.00
39197;BME280;42889;51.112;13.772;2022-10-17T03:28:01;99733.59;;;12.51;100.00
39197;BME280;42889;51.112;13.772;2022-10-17T03:30:28;99740.81;;;12.69;100.00
39197;BME280;42889;51.112;13.772;2022-10-17T03:32:56;99747.44;;;12.74;100.00
39197;BME280;42889;51.112;13.772;2022-10-17T03:35:23;99745.00;;;12.63;100.00
39197;BME280;42889;51.112;13.772;2022-10-17T03:37:50;99742.00;;;12.66;100.00
39197;BME280;42889;51.112;13.772;2022-10-17T03:40:19;99751.16;;;12.47;100.00
39197;BME280;42889;51.112;13.772;2022-10-17T03:42:47;99748.88;;;12.60;100.00
39197;BME280;42889;51.112;13.772;2022-10-17T03:45:13;99762.84;;;12.56;100.00
39197;BME280;42889;51.112;13.772;2022-10-17T03:47:40;99752.78;;;12.66;100.00
39197;BME280;42889;51.112;13.772;2022-10-17T03:50:07;99760.22;;;12.64;100.00
39197;BME280;42889;51.112;13.772;2022-10-17T03:52:36;99756.59;;;12.55;100.00
39197;BME280;42889;51.112;13.772;2022-10-17T03:55:03;99757.66;;;12.62;100.00
39197;BME280;42889;51.112;13.772;2022-10-17T03:57:30;99761.16;;;12.55;100.00
39197;BME280;42889;51.112;13.772;2022-10-17T03:59:57;99765.31;;;12.49;100.00
39197;BME280;42889;51.112;13.772;2022-10-17T04:02:24;99770.03;;;12.29;100.00
39197;BME280;42889;51.112;13.772;2022-10-17T04:04:50;99761.94;;;12.47;100.00
39197;BME280;42889;51.112;13.772;2022-10-17T04:07:17;99760.22;;;12.64;100.00
39197;BME280;42889;51.112;13.772;2022-10-17T04:09:46;99769.16;;;12.47;100.00
39197;BME280;42889;51.112;13.772;2022-10-17T04:12:17;99775.97;;;12.33;100.00
39197;BME280;42889;51.112;13.772;2022-10-17T04:14:44;99771.03;;;12.28;100.00
39197;BME280;42889;51.112;13.772;2022-10-17T04:17:11;99771.97;;;12.37;100.00
39197;BME280;42889;51.112;13.772;2022-10-17T04:19:37;99779.22;;;12.36;100.00
39197;BME280;42889;51.112;13.772;2022-10-17T04:22:05;99771.72;;;12.48;100.00
39197;BME280;42889;51.112;13.772;2022-10-17T04:24:36;99774.31;;;12.58;100.00
39197;BME280;42889;51.112;13.772;2022-10-17T04:27:05;99774.56;;;12.47;100.00
39197;BME280;42889;51.112;13.772;2022-10-17T04:29:35;99776.28;;;12.48;100.00
39197;BME280;42889;51.112;13.772;2022-10-17T04:32:13;99786.22;;;12.47;100.00
39197;BME280;42889;51.112;13.772;2022-10-17T04:34:55;99785.91;;;12.50;100.00
39197;BME280;42889;51.112;13.772;2022-10-17T04:37:22;99778.75;;;12.59;100.00
39197;BME280;42889;51.112;13.772;2022-10-17T04:39:51;99783.63;;;12.63;100.00
39197;BME280;42889;51.112;13.772;2022-10-17T04:42:18;99782.91;;;12.53;100.00
39197;BME280;42889;51.112;13.772;2022-10-17T04:44:46;99788.22;;;12.45;100.00
39197;BME280;42889;51.112;13.772;2022-10-17T04:47:15;99791.94;;;12.44;100.00
39197;BME280;42889;51.112;13.772;2022-10-17T04:49:42;99792.00;;;12.34;100.00
39197;BME280;42889;51.112;13.772;2022-10-17T04:52:09;99787.72;;;12.68;100.00
39197;BME280;42889;51.112;13.772;2022-10-17T04:54:39;99787.00;;;12.83;100.00
39197;BME280;42889;51.112;13.772;2022-10-17T04:57:08;99794.88;;;12.95;100.00
39197;BME280;42889;51.112;13.772;2022-10-17T04:59:35;99804.66;;;12.96;100.00
39197;BME280;42889;51.112;13.772;2022-10-17T05:02:22;99798.47;;;13.03;100.00
39197;BME280;42889;51.112;13.772;2022-10-17T05:04:49;99798.28;;;13.23;100.00
39197;BME280;42889;51.112;13.772;2022-10-17T05:07:16;99797.13;;;13.25;100.00
39197;BME280;42889;51.112;13.772;2022-10-17T05:09:53;99805.69;;;13.21;100.00
39197;BME280;42889;51.112;13.772;2022-10-17T05:12:21;99804.31;;;13.16;100.00
39197;BME280;42889;51.112;13.772;2022-10-17T05:14:48;99814.03;;;13.27;100.00
39197;BME280;42889;51.112;13.772;2022-10-17T05:17:14;99816.78;;;13.17;100.00
39197;BME280;42889;51.112;13.772;2022-10-17T05:19:41;99820.41;;;13.00;100.00
39197;BME280;42889;51.112;13.772;2022-10-17T05:22:08;99814.53;;;13.05;100.00
39197;BME280;42889;51.112;13.772;2022-10-17T05:24:34;99816.00;;;12.99;100.00
39197;BME280;42889;51.112;13.772;2022-10-17T05:27:02;99821.63;;;13.06;100.00
39197;BME280;42889;51.112;13.772;2022-10-17T05:29:28;99819.84;;;13.14;100.00
39197;BME280;42889;51.112;13.772;2022-10-17T05:32:03;99820.63;;;13.25;100.00
39197;BME280;42889;51.112;13.772;2022-10-17T05:34:33;99819.97;;;13.31;100.00
39197;BME280;42889;51.112;13.772;2022-10-17T05:37:00;99829.31;;;13.36;100.00
39197;BME280;42889;51.112;13.772;2022-10-17T05:39:26;99824.56;;;13.38;100.00
39197;BME280;42889;51.112;13.772;2022-10-17T05:41:55;99826.13;;;13.41;100.00
39197;BME280;42889;51.112;13.772;2022-10-17T05:44:21;99827.44;;;13.37;100.00
39197;BME280;42889;51.112;13.772;2022-10-17T05:46:52;99833.88;;;13.36;100.00
39197;BME280;42889;51.112;13.772;2022-10-17T05:49:20;99839.19;;;13.28;100.00
39197;BME280;42889;51.112;13.772;2022-10-17T05:52:06;99841.31;;;13.42;100.00
39197;BME280;42889;51.112;13.772;2022-10-17T05:54:43;99845.91;;;13.41;100.00
39197;BME280;42889;51.112;13.772;2022-10-17T05:57:10;99839.78;;;13.39;100.00
39197;BME280;42889;51.112;13.772;2022-10-17T05:59:39;99848.53;;;13.33;100.00
39197;BME280;42889;51.112;13.772;2022-10-17T06:02:11;99851.16;;;13.51;100.00
39197;BME280;42889;51.112;13.772;2022-10-17T06:04:39;99854.03;;;13.50;100.00
39197;BME280;42889;51.112;13.772;2022-10-17T06:07:11;99856.56;;;13.51;100.00
39197;BME280;42889;51.112;13.772;2022-10-17T06:09:39;99860.50;;;13.57;100.00
39197;BME280;42889;51.112;13.772;2022-10-17T06:12:07;99865.97;;;13.39;100.00
39197;BME280;42889;51.112;13.772;2022-10-17T06:14:34;99871.47;;;13.55;100.00
39197;BME280;42889;51.112;13.772;2022-10-17T06:17:02;99872.69;;;13.61;100.00
39197;BME280;42889;51.112;13.772;2022-10-17T06:19:28;99871.16;;;13.58;100.00
39197;BME280;42889;51.112;13.772;2022-10-17T06:21:55;99876.47;;;13.68;100.00
39197;BME280;42889;51.112;13.772;2022-10-17T06:24:24;99873.44;;;13.71;100.00
39197;BME280;42889;51.112;13.772;2022-10-17T06:26:52;99887.13;;;13.69;100.00
39197;BME280;42889;51.112;13.772;2022-10-17T06:29:19;99887.13;;;13.69;100.00
39197;BME280;42889;51.112;13.772;2022-10-17T06:31:49;99894.69;;;13.66;100.00
39197;BME280;42889;51.112;13.772;2022-10-17T06:34:17;99895.31;;;13.52;100.00
39197;BME280;42889;51.112;13.772;2022-10-17T06:36:44;99894.13;;;13.54;100.00
39197;BME280;42889;51.112;13.772;2022-10-17T06:39:11;99890.78;;;13.60;100.00
39197;BME280;42889;51.112;13.772;2022-10-17T06:41:55;99900.03;;;13.84;100.00
39197;BME280;42889;51.112;13.772;2022-10-17T06:44:35;99907.56;;;13.98;100.00
39197;BME280;42889;51.112;13.772;2022-10-17T06:47:28;99907.91;;;14.03;100.00
39197;BME280;42889;51.112;13.772;2022-10-17T06:49:58;99906.94;;;14.12;100.00
39197;BME280;42889;51.112;13.772;2022-10-17T06:52:40;99915.09;;;14.20;100.00
39197;BME280;42889;51.112;13.772;2022-10-17T06:55:26;99925.50;;;14.41;100.00
39197;BME280;42889;51.112;13.772;2022-10-17T06:58:08;99929.31;;;14.57;100.00
39197;BME280;42889;51.112;13.772;2022-10-17T07:01:06;99940.81;;;14.59;100.00
39197;BME280;42889;51.112;13.772;2022-10-17T07:03:35;99944.22;;;14.69;100.00
39197;BME280;42889;51.112;13.772;2022-10-17T07:06:03;99947.63;;;14.79;100.00
39197;BME280;42889;51.112;13.772;2022-10-17T07:08:30;99954.75;;;14.80;100.00
39197;BME280;42889;51.112;13.772;2022-10-17T07:11:07;99954.91;;;14.79;100.00
39197;BME280;42889;51.112;13.772;2022-10-17T07:13:35;99959.16;;;14.81;100.00
39197;BME280;42889;51.112;13.772;2022-10-17T07:16:05;99957.66;;;14.95;100.00
39197;BME280;42889;51.112;13.772;2022-10-17T07:18:32;99957.47;;;15.05;100.00
39197;BME280;42889;51.112;13.772;2022-10-17T07:20:59;99957.16;;;15.08;100.00
39197;BME280;42889;51.112;13.772;2022-10-17T07:23:26;99965.31;;;15.24;100.00
39197;BME280;42889;51.112;13.772;2022-10-17T07:25:58;99976.34;;;15.55;100.00
39197;BME280;42889;51.112;13.772;2022-10-17T07:28:26;99973.78;;;15.78;100.00
39197;BME280;42889;51.112;13.772;2022-10-17T07:31:01;99973.91;;;16.01;100.00
39197;BME280;42889;51.112;13.772;2022-10-17T07:33:29;99975.78;;;16.00;100.00
39197;BME280;42889;51.112;13.772;2022-10-17T07:35:58;99970.31;;;16.08;100.00
39197;BME280;42889;51.112;13.772;2022-10-17T07:38:25;99980.47;;;16.15;98.71
39197;BME280;42889;51.112;13.772;2022-10-17T07:40:56;99982.50;;;16.29;99.67
39197;BME280;42889;51.112;13.772;2022-10-17T07:43:24;99984.88;;;16.32;98.53
39197;BME280;42889;51.112;13.772;2022-10-17T07:45:52;99995.16;;;16.45;97.55
39197;BME280;42889;51.112;13.772;2022-10-17T07:48:20;99984.22;;;16.61;96.96
39197;BME280;42889;51.112;13.772;2022-10-17T07:50:48;99986.38;;;16.82;93.55
39197;BME280;42889;51.112;13.772;2022-10-17T07:53:15;99987.38;;;16.81;92.12
39197;BME280;42889;51.112;13.772;2022-10-17T07:55:42;99991.25;;;16.86;91.91
39197;BME280;42889;51.112;13.772;2022-10-17T07:58:10;99993.72;;;17.04;91.93
39197;BME280;42889;51.112;13.772;2022-10-17T08:00:37;100000.28;;;17.10;89.72
39197;BME280;42889;51.112;13.772;2022-10-17T08:03:04;100003.63;;;17.20;89.84
39197;BME280;42889;51.112;13.772;2022-10-17T08:05:32;99997.09;;;17.29;90.13
39197;BME280;42889;51.112;13.772;2022-10-17T08:07:59;100005.50;;;17.43;90.83
39197;BME280;42889;51.112;13.772;2022-10-17T08:10:26;100005.06;;;17.54;87.92
39197;BME280;42889;51.112;13.772;2022-10-17T08:12:55;100006.88;;;17.61;88.88
39197;BME280;42889;51.112;13.772;2022-10-17T08:15:23;99999.75;;;17.60;87.27
39197;BME280;42889;51.112;13.772;2022-10-17T08:17:57;100000.47;;;17.77;86.62
39197;BME280;42889;51.112;13.772;2022-10-17T08:20:23;100001.59;;;17.83;85.15
39197;BME280;42889;51.112;13.772;2022-10-17T08:22:53;99998.72;;;17.99;83.74
39197;BME280;42889;51.112;13.772;2022-10-17T08:25:21;99996.78;;;18.08;83.10
39197;BME280;42889;51.112;13.772;2022-10-17T08:27:48;99998.34;;;18.17;84.17
39197;BME280;42889;51.112;13.772;2022-10-17T08:30:16;99993.75;;;18.17;81.03
39197;BME280;42889;51.112;13.772;2022-10-17T08:32:42;99996.56;;;18.39;82.27
39197;BME280;42889;51.112;13.772;2022-10-17T08:35:09;100001.38;;;18.52;82.51
39197;BME280;42889;51.112;13.772;2022-10-17T08:37:36;99999.50;;;18.52;78.88
39197;BME280;42889;51.112;13.772;2022-10-17T08:40:03;99999.19;;;18.62;81.90
39197;BME280;42889;51.112;13.772;2022-10-17T08:42:33;99996.59;;;18.68;80.94
39197;BME280;42889;51.112;13.772;2022-10-17T08:48:04;99992.78;;;18.84;76.26
39197;BME280;42889;51.112;13.772;2022-10-17T08:53:32;100007.00;;;19.16;77.89
39197;BME280;42889;51.112;13.772;2022-10-17T08:58:50;99996.81;;;19.89;71.74
39197;BME280;42889;51.112;13.772;2022-10-17T09:01:31;99990.16;;;20.33;70.16
39197;BME280;42889;51.112;13.772;2022-10-17T09:06:58;99995.78;;;21.07;68.04
39197;BME280;42889;51.112;13.772;2022-10-17T09:09:48;63530.91;;;-146.37;100.00
39197;BME280;42889;51.112;13.772;2022-10-17T09:12:43;63530.91;;;-146.37;100.00
39197;BME280;42889;51.112;13.772;2022-10-17T09:15:30;63530.91;;;-146.37;100.00
39197;BME280;42889;51.112;13.772;2022-10-17T09:20:38;63530.91;;;-146.37;100.00
39197;BME280;42889;51.112;13.772;2022-10-17T09:23:12;63530.91;;;-146.37;100.00
39197;BME280;42889;51.112;13.772;2022-10-17T09:25:43;63530.91;;;-146.37;100.00
39197;BME280;42889;51.112;13.772;2022-10-17T09:28:31;63530.91;;;-146.37;100.00
39197;BME280;42889;51.112;13.772;2022-10-17T09:31:02;63530.91;;;-146.37;100.00
39197;BME280;42889;51.112;13.772;2022-10-17T09:33:35;63530.91;;;-146.37;100.00
39197;BME280;42889;51.112;13.772;2022-10-17T09:38:48;63530.91;;;-146.37;100.00
39197;BME280;42889;51.112;13.772;2022-10-17T09:41:22;63530.91;;;-146.37;100.00
39197;BME280;42889;51.112;13.772;2022-10-17T09:44:16;63530.91;;;-146.37;100.00
39197;BME280;42889;51.112;13.772;2022-10-17T09:47:00;63530.91;;;-146.37;100.00
39197;BME280;42889;51.112;13.772;2022-10-17T09:49:32;63530.91;;;-146.37;100.00
39197;BME280;42889;51.112;13.772;2022-10-17T09:52:04;63530.91;;;-146.37;100.00
39197;BME280;42889;51.112;13.772;2022-10-17T09:54:40;63530.91;;;-146.37;100.00
39197;BME280;42889;51.112;13.772;2022-10-17T09:57:09;63530.91;;;-146.37;100.00
39197;BME280;42889;51.112;13.772;2022-10-17T09:59:42;63530.91;;;-146.37;100.00
39197;BME280;42889;51.112;13.772;2022-10-17T10:05:03;63530.91;;;-146.37;100.00
39197;BME280;42889;51.112;13.772;2022-10-17T10:07:35;63530.91;;;-146.37;100.00
39197;BME280;42889;51.112;13.772;2022-10-17T10:10:04;63530.91;;;-146.37;100.00
39197;BME280;42889;51.112;13.772;2022-10-17T10:12:35;63530.91;;;-146.37;100.00
39197;BME280;42889;51.112;13.772;2022-10-17T10:15:32;63530.91;;;-146.37;100.00
39197;BME280;42889;51.112;13.772;2022-10-17T10:17:59;63530.91;;;-146.37;100.00
39197;BME280;42889;51.112;13.772;2022-10-17T10:20:34;63530.91;;;-146.37;100.00
39197;BME280;42889;51.112;13.772;2022-10-17T10:25:55;63530.91;;;-146.37;100.00
39197;BME280;42889;51.112;13.772;2022-10-17T10:28:28;63530.91;;;-146.37;100.00
39197;BME280;42889;51.112;13.772;2022-10-17T10:30:59;99995.78;;;21.07;68.04
39197;BME280;42889;51.112;13.772;2022-10-17T10:33:28;99995.19;;;26.68;44.37
39197;BME280;42889;51.112;13.772;2022-10-17T10:36:01;99986.19;;;27.13;43.86
39197;BME280;42889;51.112;13.772;2022-10-17T10:38:30;99973.47;;;27.91;43.60
39197;BME280;42889;51.112;13.772;2022-10-17T10:41:04;63530.91;;;-146.37;100.00
39197;BME280;42889;51.112;13.772;2022-10-17T10:43:36;63530.91;;;-146.37;100.00
39197;BME280;42889;51.112;13.772;2022-10-17T10:46:20;63530.91;;;-146.37;100.00
39197;BME280;42889;51.112;13.772;2022-10-17T10:48:59;63530.91;;;-146.37;100.00
39197;BME280;42889;51.112;13.772;2022-10-17T10:51:31;63530.91;;;-146.37;100.00
39197;BME280;42889;51.112;13.772;2022-10-17T10:54:07;63530.91;;;-146.37;100.00
39197;BME280;42889;51.112;13.772;2022-10-17T10:56:40;63530.91;;;-146.37;100.00
39197;BME280;42889;51.112;13.772;2022-10-17T10:59:14;63530.91;;;-146.37;100.00
39197;BME280;42889;51.112;13.772;2022-10-17T11:06:52;63530.91;;;-146.37;100.00
39197;BME280;42889;51.112;13.772;2022-10-17T11:17:35;63530.91;;;-146.37;100.00
39197;BME280;42889;51.112;13.772;2022-10-17T11:22:42;63530.91;;;-146.37;100.00
39197;BME280;42889;51.112;13.772;2022-10-17T11:25:32;63530.91;;;-146.37;100.00
39197;BME280;42889;51.112;13.772;2022-10-17T11:27:59;63530.91;;;-146.37;100.00
39197;BME280;42889;51.112;13.772;2022-10-17T11:30:39;63530.91;;;-146.37;100.00
39197;BME280;42889;51.112;13.772;2022-10-17T11:33:12;63530.91;;;-146.37;100.00
39197;BME280;42889;51.112;13.772;2022-10-17T11:35:43;63530.91;;;-146.37;100.00
39197;BME280;42889;51.112;13.772;2022-10-17T11:38:24;63530.91;;;-146.37;100.00
39197;BME280;42889;51.112;13.772;2022-10-17T11:40:58;63530.91;;;-146.37;100.00
39197;BME280;42889;51.112;13.772;2022-10-17T11:43:36;63530.91;;;-146.37;100.00
39197;BME280;42889;51.112;13.772;2022-10-17T11:46:26;63530.91;;;-146.37;100.00
39197;BME280;42889;51.112;13.772;2022-10-17T11:51:36;63530.91;;;-146.37;100.00
39197;BME280;42889;51.112;13.772;2022-10-17T11:54:48;63530.91;;;-146.37;100.00
39197;BME280;42889;51.112;13.772;2022-10-17T12:13:50;63530.91;;;-146.37;100.00
39197;BME280;42889;51.112;13.772;2022-10-17T12:27:30;63530.91;;;-146.37;100.00
39197;BME280;42889;51.112;13.772;2022-10-17T12:30:04;63530.91;;;-146.37;100.00
39197;BME280;42889;51.112;13.772;2022-10-17T12:32:31;63530.91;;;-146.37;100.00
39197;BME280;42889;51.112;13.772;2022-10-17T12:35:20;63530.91;;;-146.37;100.00
39197;BME280;42889;51.112;13.772;2022-10-17T12:54:10;63530.91;;;-146.37;100.00
39197;BME280;42889;51.112;13.772;2022-10-17T12:59:23;63530.91;;;-146.37;100.00
39197;BME280;42889;51.112;13.772;2022-10-17T13:01:53;63530.91;;;-146.37;100.00
39197;BME280;42889;51.112;13.772;2022-10-17T13:04:22;63530.91;;;-146.37;100.00
39197;BME280;42889;51.112;13.772;2022-10-17T13:06:55;63530.91;;;-146.37;100.00
39197;BME280;42889;51.112;13.772;2022-10-17T13:09:26;63530.91;;;-146.37;100.00
39197;BME280;42889;51.112;13.772;2022-10-17T13:11:55;63530.91;;;-146.37;100.00
39197;BME280;42889;51.112;13.772;2022-10-17T13:14:24;63530.91;;;-146.37;100.00
39197;BME280;42889;51.112;13.772;2022-10-17T13:16:59;63530.91;;;-146.37;100.00
39197;BME280;42889;51.112;13.772;2022-10-17T13:19:39;63530.91;;;-146.37;100.00
39197;BME280;42889;51.112;13.772;2022-10-17T13:22:13;63530.91;;;-146.37;100.00
39197;BME280;42889;51.112;13.772;2022-10-17T13:24:40;63530.91;;;-146.37;100.00
39197;BME280;42889;51.112;13.772;2022-10-17T13:27:25;63530.91;;;-146.37;100.00
39197;BME280;42889;51.112;13.772;2022-10-17T13:29:54;63530.91;;;-146.37;100.00
39197;BME280;42889;51.112;13.772;2022-10-17T13:32:23;63530.91;;;-146.37;100.00
39197;BME280;42889;51.112;13.772;2022-10-17T13:35:10;63530.91;;;-146.37;100.00
39197;BME280;42889;51.112;13.772;2022-10-17T13:37:39;63530.91;;;-146.37;100.00
39197;BME280;42889;51.112;13.772;2022-10-17T13:40:14;63530.91;;;-146.37;100.00
39197;BME280;42889;51.112;13.772;2022-10-17T13:43:02;63530.91;;;-146.37;100.00
39197;BME280;42889;51.112;13.772;2022-10-17T13:45:33;63530.91;;;-146.37;100.00
39197;BME280;42889;51.112;13.772;2022-10-17T13:48:04;63530.91;;;-146.37;100.00
39197;BME280;42889;51.112;13.772;2022-10-17T13:50:35;63530.91;;;-146.37;100.00
39197;BME280;42889;51.112;13.772;2022-10-17T13:59:02;63530.91;;;-146.37;100.00
39197;BME280;42889;51.112;13.772;2022-10-17T14:01:33;63530.91;;;-146.37;100.00
39197;BME280;42889;51.112;13.772;2022-10-17T14:04:00;63530.91;;;-146.37;100.00
39197;BME280;42889;51.112;13.772;2022-10-17T14:06:41;63530.91;;;-146.37;100.00
39197;BME280;42889;51.112;13.772;2022-10-17T14:09:26;63530.91;;;-146.37;100.00
39197;BME280;42889;51.112;13.772;2022-10-17T14:12:09;63530.91;;;-146.37;100.00
39197;BME280;42889;51.112;13.772;2022-10-17T14:14:39;63530.91;;;-146.37;100.00
39197;BME280;42889;51.112;13.772;2022-10-17T14:17:32;63530.91;;;-146.37;100.00
39197;BME280;42889;51.112;13.772;2022-10-17T14:20:01;63530.91;;;-146.37;100.00
39197;BME280;42889;51.112;13.772;2022-10-17T14:22:49;63530.91;;;-146.37;100.00
39197;BME280;42889;51.112;13.772;2022-10-17T14:25:38;63530.91;;;-146.37;100.00
39197;BME280;42889;51.112;13.772;2022-10-17T14:33:31;63530.91;;;-146.37;100.00
39197;BME280;42889;51.112;13.772;2022-10-17T14:35:59;63530.91;;;-146.37;100.00
39197;BME280;42889;51.112;13.772;2022-10-17T14:38:28;63530.91;;;-146.37;100.00
39197;BME280;42889;51.112;13.772;2022-10-17T14:41:08;63530.91;;;-146.37;100.00
39197;BME280;42889;51.112;13.772;2022-10-17T14:44:16;63530.91;;;-146.37;100.00
39197;BME280;42889;51.112;13.772;2022-10-17T14:46:45;63530.91;;;-146.37;100.00
39197;BME280;42889;51.112;13.772;2022-10-17T14:49:23;63530.91;;;-146.37;100.00
39197;BME280;42889;51.112;13.772;2022-10-17T14:54:46;63530.91;;;-146.37;100.00
39197;BME280;42889;51.112;13.772;2022-10-17T14:59:58;63530.91;;;-146.37;100.00
39197;BME280;42889;51.112;13.772;2022-10-17T15:02:26;63530.91;;;-146.37;100.00
39197;BME280;42889;51.112;13.772;2022-10-17T15:04:54;63530.91;;;-146.37;100.00
39197;BME280;42889;51.112;13.772;2022-10-17T15:07:21;63530.91;;;-146.37;100.00
39197;BME280;42889;51.112;13.772;2022-10-17T15:09:50;63530.91;;;-146.37;100.00
39197;BME280;42889;51.112;13.772;2022-10-17T15:12:21;63530.91;;;-146.37;100.00